Cyril E King Airport

Airport
ICAO code: 
TIST
IATA Code: 
STT
Summary
ICAO Region: 
CARSAM
Location: 
Charlotte Amalie, US Virgin Islands
Serving: 
St Thomas
Elevation: 
24 ft
Coordinates: 
Aerial View: 
18° 20' 9.819" N, 64° 58' 20.181" W
Metar
Observation
TIST 261053Z 08006KT 10SM CLR 23/18 A3002 RMK AO2 SLP165 T02330183
Station
Charlotte Amalie St. Thomas, Cyril E. King Airport
Date/Time
2022-01-26 10:53:00
Wind direction
80°
Wind speed
06 kts
Lowest cloud amount
n/a
Temperature
23.3°C
Dew point
18.3°C
Humidity
73%
Weather condition
n/a

Cyril E. King International Airport is a public airport located 3 km west of the central business district of Charlotte Amalie on the island of St. Thomas in the United States Virgin Islands.

Climatology

Tropical monsoon climate (Köppen climate classification Am)

Runways

Designator Length Width Surface Rops
10/28 2134 46 ASP Yes/Yes
Airport map: 
Aerial View: 

SKYbrary Partners:

Safety knowledge contributed by: